sensor_id;sensor_type;location;lat;lon;timestamp;temperature;humidity
3075;DHT22;1548;51.716;8.748;2022-09-27T00:00:28;10.90;81.70
3075;DHT22;1548;51.716;8.748;2022-09-27T00:02:54;10.90;81.70
3075;DHT22;1548;51.716;8.748;2022-09-27T00:05:19;10.90;81.80
3075;DHT22;1548;51.716;8.748;2022-09-27T00:07:45;10.90;81.70
3075;DHT22;1548;51.716;8.748;2022-09-27T00:10:11;10.90;81.70
3075;DHT22;1548;51.716;8.748;2022-09-27T00:12:38;10.90;81.80
3075;DHT22;1548;51.716;8.748;2022-09-27T00:15:04;10.90;81.60
3075;DHT22;1548;51.716;8.748;2022-09-27T00:17:30;10.90;81.70
3075;DHT22;1548;51.716;8.748;2022-09-27T00:19:58;10.90;81.70
3075;DHT22;1548;51.716;8.748;2022-09-27T00:22:24;10.90;81.80
3075;DHT22;1548;51.716;8.748;2022-09-27T00:24:50;10.90;81.70
3075;DHT22;1548;51.716;8.748;2022-09-27T00:27:17;10.90;81.70
3075;DHT22;1548;51.716;8.748;2022-09-27T00:29:43;10.90;81.70
3075;DHT22;1548;51.716;8.748;2022-09-27T00:32:09;11.00;81.70
3075;DHT22;1548;51.716;8.748;2022-09-27T00:34:35;10.90;81.70
3075;DHT22;1548;51.716;8.748;2022-09-27T00:37:01;10.90;81.80
3075;DHT22;1548;51.716;8.748;2022-09-27T00:39:26;10.90;81.80
3075;DHT22;1548;51.716;8.748;2022-09-27T00:41:52;10.90;81.60
3075;DHT22;1548;51.716;8.748;2022-09-27T00:49:35;11.00;81.70
3075;DHT22;1548;51.716;8.748;2022-09-27T00:52:10;11.00;81.60
3075;DHT22;1548;51.716;8.748;2022-09-27T00:54:41;11.00;81.60
3075;DHT22;1548;51.716;8.748;2022-09-27T00:57:07;11.10;81.70
3075;DHT22;1548;51.716;8.748;2022-09-27T00:59:40;11.10;81.80
3075;DHT22;1548;51.716;8.748;2022-09-27T01:02:09;11.10;81.70
3075;DHT22;1548;51.716;8.748;2022-09-27T01:04:36;11.10;81.70
3075;DHT22;1548;51.716;8.748;2022-09-27T01:07:03;11.10;81.80
3075;DHT22;1548;51.716;8.748;2022-09-27T01:09:29;11.00;82.00
3075;DHT22;1548;51.716;8.748;2022-09-27T01:20:42;10.90;81.80
3075;DHT22;1548;51.716;8.748;2022-09-27T01:26:15;10.90;81.90
3075;DHT22;1548;51.716;8.748;2022-09-27T01:29:10;10.90;81.90
3075;DHT22;1548;51.716;8.748;2022-09-27T01:33:12;10.80;81.90
3075;DHT22;1548;51.716;8.748;2022-09-27T01:40:49;10.70;81.70
3075;DHT22;1548;51.716;8.748;2022-09-27T01:44:01;10.70;81.80
3075;DHT22;1548;51.716;8.748;2022-09-27T01:46:48;10.80;81.80
3075;DHT22;1548;51.716;8.748;2022-09-27T01:49:21;10.80;81.80
3075;DHT22;1548;51.716;8.748;2022-09-27T01:51:56;10.70;81.70
3075;DHT22;1548;51.716;8.748;2022-09-27T01:54:47;10.70;81.70
3075;DHT22;1548;51.716;8.748;2022-09-27T01:57:17;10.60;81.80
3075;DHT22;1548;51.716;8.748;2022-09-27T01:59:48;10.50;81.80
3075;DHT22;1548;51.716;8.748;2022-09-27T02:02:16;10.40;81.70
3075;DHT22;1548;51.716;8.748;2022-09-27T02:04:45;10.30;81.70
3075;DHT22;1548;51.716;8.748;2022-09-27T02:07:21;10.30;81.70
3075;DHT22;1548;51.716;8.748;2022-09-27T02:09:56;10.20;81.60
3075;DHT22;1548;51.716;8.748;2022-09-27T02:12:26;10.20;81.60
3075;DHT22;1548;51.716;8.748;2022-09-27T02:14:55;10.10;81.60
3075;DHT22;1548;51.716;8.748;2022-09-27T02:17:39;10.10;81.60
3075;DHT22;1548;51.716;8.748;2022-09-27T02:23:38;10.10;81.70
3075;DHT22;1548;51.716;8.748;2022-09-27T02:26:30;10.00;81.70
3075;DHT22;1548;51.716;8.748;2022-09-27T02:31:28;10.00;81.80
3075;DHT22;1548;51.716;8.748;2022-09-27T02:34:01;9.90;81.80
3075;DHT22;1548;51.716;8.748;2022-09-27T02:36:28;9.90;81.80
3075;DHT22;1548;51.716;8.748;2022-09-27T02:38:54;9.90;81.80
3075;DHT22;1548;51.716;8.748;2022-09-27T02:41:21;10.00;81.80
3075;DHT22;1548;51.716;8.748;2022-09-27T02:43:56;9.90;81.80
3075;DHT22;1548;51.716;8.748;2022-09-27T02:52:26;9.90;81.90
3075;DHT22;1548;51.716;8.748;2022-09-27T03:00:13;9.80;81.90
3075;DHT22;1548;51.716;8.748;2022-09-27T03:05:17;9.80;81.90
3075;DHT22;1548;51.716;8.748;2022-09-27T03:07:44;9.80;81.90
3075;DHT22;1548;51.716;8.748;2022-09-27T03:10:22;9.90;81.90
3075;DHT22;1548;51.716;8.748;2022-09-27T03:12:49;9.90;81.90
3075;DHT22;1548;51.716;8.748;2022-09-27T03:15:15;9.90;82.00
3075;DHT22;1548;51.716;8.748;2022-09-27T03:17:41;10.00;81.90
3075;DHT22;1548;51.716;8.748;2022-09-27T03:20:07;10.00;82.00
3075;DHT22;1548;51.716;8.748;2022-09-27T03:22:33;9.90;81.90
3075;DHT22;1548;51.716;8.748;2022-09-27T03:24:59;9.90;82.00
3075;DHT22;1548;51.716;8.748;2022-09-27T03:27:25;9.80;81.90
3075;DHT22;1548;51.716;8.748;2022-09-27T03:29:51;9.90;81.90
3075;DHT22;1548;51.716;8.748;2022-09-27T03:32:16;9.90;81.80
3075;DHT22;1548;51.716;8.748;2022-09-27T03:34:43;9.90;81.90
3075;DHT22;1548;51.716;8.748;2022-09-27T03:37:09;9.90;82.00
3075;DHT22;1548;51.716;8.748;2022-09-27T03:39:34;9.80;81.80
3075;DHT22;1548;51.716;8.748;2022-09-27T03:42:00;9.70;82.00
3075;DHT22;1548;51.716;8.748;2022-09-27T03:44:26;9.60;81.90
3075;DHT22;1548;51.716;8.748;2022-09-27T03:46:51;9.60;82.00
3075;DHT22;1548;51.716;8.748;2022-09-27T03:49:17;9.60;82.00
3075;DHT22;1548;51.716;8.748;2022-09-27T03:51:44;9.60;82.00
3075;DHT22;1548;51.716;8.748;2022-09-27T03:54:09;9.60;82.00
3075;DHT22;1548;51.716;8.748;2022-09-27T03:56:35;9.50;82.00
3075;DHT22;1548;51.716;8.748;2022-09-27T03:59:01;9.50;82.00
3075;DHT22;1548;51.716;8.748;2022-09-27T04:01:26;9.50;82.00
3075;DHT22;1548;51.716;8.748;2022-09-27T04:03:53;9.60;82.10
3075;DHT22;1548;51.716;8.748;2022-09-27T04:06:19;9.50;82.10
3075;DHT22;1548;51.716;8.748;2022-09-27T04:08:45;9.50;82.00
3075;DHT22;1548;51.716;8.748;2022-09-27T04:11:12;9.50;82.00
3075;DHT22;1548;51.716;8.748;2022-09-27T04:13:40;9.50;82.00
3075;DHT22;1548;51.716;8.748;2022-09-27T04:16:06;9.50;82.00
3075;DHT22;1548;51.716;8.748;2022-09-27T04:18:32;9.50;82.00
3075;DHT22;1548;51.716;8.748;2022-09-27T04:20:58;9.50;82.00
3075;DHT22;1548;51.716;8.748;2022-09-27T04:23:23;9.50;82.00
3075;DHT22;1548;51.716;8.748;2022-09-27T04:25:49;9.50;82.00
3075;DHT22;1548;51.716;8.748;2022-09-27T04:28:15;9.50;82.00
3075;DHT22;1548;51.716;8.748;2022-09-27T04:30:40;9.40;82.00
3075;DHT22;1548;51.716;8.748;2022-09-27T04:33:06;9.50;81.90
3075;DHT22;1548;51.716;8.748;2022-09-27T04:35:32;9.50;82.00
3075;DHT22;1548;51.716;8.748;2022-09-27T04:38:16;9.50;82.00
3075;DHT22;1548;51.716;8.748;2022-09-27T04:40:44;9.50;82.00
3075;DHT22;1548;51.716;8.748;2022-09-27T04:43:10;9.50;82.00
3075;DHT22;1548;51.716;8.748;2022-09-27T04:45:36;9.40;82.00
3075;DHT22;1548;51.716;8.748;2022-09-27T04:48:01;9.50;82.00
3075;DHT22;1548;51.716;8.748;2022-09-27T04:50:27;9.50;82.00
3075;DHT22;1548;51.716;8.748;2022-09-27T04:52:53;9.50;82.00
3075;DHT22;1548;51.716;8.748;2022-09-27T04:55:20;9.50;82.00
3075;DHT22;1548;51.716;8.748;2022-09-27T04:57:46;9.40;82.00
3075;DHT22;1548;51.716;8.748;2022-09-27T05:00:12;9.40;82.00
3075;DHT22;1548;51.716;8.748;2022-09-27T05:02:38;9.30;82.20
3075;DHT22;1548;51.716;8.748;2022-09-27T05:05:04;9.40;81.90
3075;DHT22;1548;51.716;8.748;2022-09-27T05:07:33;9.40;82.00
3075;DHT22;1548;51.716;8.748;2022-09-27T05:09:59;9.40;82.00
3075;DHT22;1548;51.716;8.748;2022-09-27T05:12:25;9.30;82.10
3075;DHT22;1548;51.716;8.748;2022-09-27T05:14:52;9.40;82.00
3075;DHT22;1548;51.716;8.748;2022-09-27T05:17:18;9.30;82.20
3075;DHT22;1548;51.716;8.748;2022-09-27T05:19:44;9.30;82.10
3075;DHT22;1548;51.716;8.748;2022-09-27T05:22:10;9.30;82.10
3075;DHT22;1548;51.716;8.748;2022-09-27T05:24:36;9.20;82.20
3075;DHT22;1548;51.716;8.748;2022-09-27T05:27:03;9.30;82.10
3075;DHT22;1548;51.716;8.748;2022-09-27T05:29:33;9.30;82.10
3075;DHT22;1548;51.716;8.748;2022-09-27T05:32:00;9.30;82.20
3075;DHT22;1548;51.716;8.748;2022-09-27T05:34:26;9.30;82.10
3075;DHT22;1548;51.716;8.748;2022-09-27T05:36:51;9.30;82.10
3075;DHT22;1548;51.716;8.748;2022-09-27T05:39:17;9.20;81.90
3075;DHT22;1548;51.716;8.748;2022-09-27T05:41:44;9.30;81.90
3075;DHT22;1548;51.716;8.748;2022-09-27T05:44:10;9.40;81.90
3075;DHT22;1548;51.716;8.748;2022-09-27T05:46:37;9.30;82.10
3075;DHT22;1548;51.716;8.748;2022-09-27T05:49:04;9.20;82.10
3075;DHT22;1548;51.716;8.748;2022-09-27T05:51:29;9.30;81.90
3075;DHT22;1548;51.716;8.748;2022-09-27T05:53:55;9.30;81.80
3075;DHT22;1548;51.716;8.748;2022-09-27T05:56:21;9.30;82.10
3075;DHT22;1548;51.716;8.748;2022-09-27T05:58:47;9.30;81.90
3075;DHT22;1548;51.716;8.748;2022-09-27T06:01:12;9.30;82.10
3075;DHT22;1548;51.716;8.748;2022-09-27T06:03:38;9.20;82.10
3075;DHT22;1548;51.716;8.748;2022-09-27T06:06:06;9.30;81.90
3075;DHT22;1548;51.716;8.748;2022-09-27T06:08:33;9.30;82.10
3075;DHT22;1548;51.716;8.748;2022-09-27T06:11:10;9.30;82.20
3075;DHT22;1548;51.716;8.748;2022-09-27T06:13:37;9.20;81.90
3075;DHT22;1548;51.716;8.748;2022-09-27T06:16:08;9.20;81.90
3075;DHT22;1548;51.716;8.748;2022-09-27T06:18:35;9.30;81.90
3075;DHT22;1548;51.716;8.748;2022-09-27T06:21:02;9.30;82.10
3075;DHT22;1548;51.716;8.748;2022-09-27T06:23:28;9.30;82.10
3075;DHT22;1548;51.716;8.748;2022-09-27T06:26:00;9.30;82.10
3075;DHT22;1548;51.716;8.748;2022-09-27T06:28:26;9.30;82.10
3075;DHT22;1548;51.716;8.748;2022-09-27T06:30:52;9.20;82.10
3075;DHT22;1548;51.716;8.748;2022-09-27T06:33:19;9.20;82.20
3075;DHT22;1548;51.716;8.748;2022-09-27T06:35:45;9.30;81.90
3075;DHT22;1548;51.716;8.748;2022-09-27T06:38:13;9.30;82.10
3075;DHT22;1548;51.716;8.748;2022-09-27T06:40:41;9.30;82.10
3075;DHT22;1548;51.716;8.748;2022-09-27T06:43:11;9.40;82.20
3075;DHT22;1548;51.716;8.748;2022-09-27T06:45:37;9.30;82.20
3075;DHT22;1548;51.716;8.748;2022-09-27T06:48:05;9.30;82.10
3075;DHT22;1548;51.716;8.748;2022-09-27T06:50:33;9.30;82.20
3075;DHT22;1548;51.716;8.748;2022-09-27T06:52:59;9.30;82.30
3075;DHT22;1548;51.716;8.748;2022-09-27T06:55:25;9.20;82.20
3075;DHT22;1548;51.716;8.748;2022-09-27T06:57:55;9.20;82.10
3075;DHT22;1548;51.716;8.748;2022-09-27T07:00:39;9.20;82.20
3075;DHT22;1548;51.716;8.748;2022-09-27T07:03:09;9.20;82.30
3075;DHT22;1548;51.716;8.748;2022-09-27T07:05:36;9.20;82.10
3075;DHT22;1548;51.716;8.748;2022-09-27T07:08:03;9.30;82.30
3075;DHT22;1548;51.716;8.748;2022-09-27T07:10:33;9.20;82.30
3075;DHT22;1548;51.716;8.748;2022-09-27T07:13:07;9.30;82.20
3075;DHT22;1548;51.716;8.748;2022-09-27T07:15:38;9.30;82.10
3075;DHT22;1548;51.716;8.748;2022-09-27T07:18:06;9.30;82.10
3075;DHT22;1548;51.716;8.748;2022-09-27T07:20:33;9.30;82.30
3075;DHT22;1548;51.716;8.748;2022-09-27T07:23:02;9.40;82.10
3075;DHT22;1548;51.716;8.748;2022-09-27T07:25:27;9.50;82.10
3075;DHT22;1548;51.716;8.748;2022-09-27T07:27:53;9.50;82.10
3075;DHT22;1548;51.716;8.748;2022-09-27T07:30:19;9.60;82.20
3075;DHT22;1548;51.716;8.748;2022-09-27T07:32:46;9.70;82.00
3075;DHT22;1548;51.716;8.748;2022-09-27T07:35:12;9.70;82.20
3075;DHT22;1548;51.716;8.748;2022-09-27T07:37:40;9.70;82.10
3075;DHT22;1548;51.716;8.748;2022-09-27T07:40:07;9.70;82.30
3075;DHT22;1548;51.716;8.748;2022-09-27T07:42:34;9.80;81.90
3075;DHT22;1548;51.716;8.748;2022-09-27T07:45:04;9.80;82.30
3075;DHT22;1548;51.716;8.748;2022-09-27T07:47:30;9.80;82.10
3075;DHT22;1548;51.716;8.748;2022-09-27T07:49:56;9.90;82.10
3075;DHT22;1548;51.716;8.748;2022-09-27T07:52:22;10.00;82.00
3075;DHT22;1548;51.716;8.748;2022-09-27T07:54:47;10.00;82.20
3075;DHT22;1548;51.716;8.748;2022-09-27T07:57:14;9.80;82.00
3075;DHT22;1548;51.716;8.748;2022-09-27T07:59:40;9.80;82.00
3075;DHT22;1548;51.716;8.748;2022-09-27T08:02:13;10.00;81.90
3075;DHT22;1548;51.716;8.748;2022-09-27T08:04:40;10.20;82.10
3075;DHT22;1548;51.716;8.748;2022-09-27T08:07:08;10.20;82.50
3075;DHT22;1548;51.716;8.748;2022-09-27T08:09:34;10.20;82.00
3075;DHT22;1548;51.716;8.748;2022-09-27T08:12:00;10.30;82.00
3075;DHT22;1548;51.716;8.748;2022-09-27T08:14:26;10.30;82.20
3075;DHT22;1548;51.716;8.748;2022-09-27T08:16:51;10.20;81.90
3075;DHT22;1548;51.716;8.748;2022-09-27T08:19:17;10.20;82.10
3075;DHT22;1548;51.716;8.748;2022-09-27T08:21:43;10.20;81.90
3075;DHT22;1548;51.716;8.748;2022-09-27T08:24:09;10.20;82.10
3075;DHT22;1548;51.716;8.748;2022-09-27T08:26:35;10.10;81.80
3075;DHT22;1548;51.716;8.748;2022-09-27T08:29:01;10.20;82.00
3075;DHT22;1548;51.716;8.748;2022-09-27T08:31:27;10.20;81.90
3075;DHT22;1548;51.716;8.748;2022-09-27T08:33:52;10.20;82.20
3075;DHT22;1548;51.716;8.748;2022-09-27T08:36:18;10.10;82.10
3075;DHT22;1548;51.716;8.748;2022-09-27T08:38:49;10.20;81.90
3075;DHT22;1548;51.716;8.748;2022-09-27T08:41:24;10.30;81.90
3075;DHT22;1548;51.716;8.748;2022-09-27T08:44:05;10.50;81.70
3075;DHT22;1548;51.716;8.748;2022-09-27T08:46:52;10.50;81.80
3075;DHT22;1548;51.716;8.748;2022-09-27T08:49:30;10.50;81.70
3075;DHT22;1548;51.716;8.748;2022-09-27T08:51:57;10.40;82.10
3075;DHT22;1548;51.716;8.748;2022-09-27T08:54:27;10.50;82.00
3075;DHT22;1548;51.716;8.748;2022-09-27T08:57:05;10.40;82.10
3075;DHT22;1548;51.716;8.748;2022-09-27T08:59:40;10.60;81.60
3075;DHT22;1548;51.716;8.748;2022-09-27T09:02:18;10.60;81.80
3075;DHT22;1548;51.716;8.748;2022-09-27T09:04:45;10.70;82.80
3075;DHT22;1548;51.716;8.748;2022-09-27T09:11:04;10.80;81.80
3075;DHT22;1548;51.716;8.748;2022-09-27T09:33:17;11.20;81.80
3075;DHT22;1548;51.716;8.748;2022-09-27T09:35:59;11.00;82.10
3075;DHT22;1548;51.716;8.748;2022-09-27T09:38:47;10.90;81.40
3075;DHT22;1548;51.716;8.748;2022-09-27T09:41:28;10.50;81.20
3075;DHT22;1548;51.716;8.748;2022-09-27T09:44:09;10.50;81.30
3075;DHT22;1548;51.716;8.748;2022-09-27T09:46:41;10.50;81.30
3075;DHT22;1548;51.716;8.748;2022-09-27T09:49:33;11.00;81.30
3075;DHT22;1548;51.716;8.748;2022-09-27T09:52:18;11.10;80.80
3075;DHT22;1548;51.716;8.748;2022-09-27T09:55:06;11.20;80.60
3075;DHT22;1548;51.716;8.748;2022-09-27T09:57:41;11.10;80.60
3075;DHT22;1548;51.716;8.748;2022-09-27T10:00:17;11.20;81.00
3075;DHT22;1548;51.716;8.748;2022-09-27T10:02:45;11.00;80.60
3075;DHT22;1548;51.716;8.748;2022-09-27T10:05:22;10.90;80.50
3075;DHT22;1548;51.716;8.748;2022-09-27T10:07:51;11.10;80.90
3075;DHT22;1548;51.716;8.748;2022-09-27T10:10:19;11.20;80.80
3075;DHT22;1548;51.716;8.748;2022-09-27T10:12:46;11.10;80.70
3075;DHT22;1548;51.716;8.748;2022-09-27T10:15:25;11.30;80.30
3075;DHT22;1548;51.716;8.748;2022-09-27T10:17:53;11.70;80.50
3075;DHT22;1548;51.716;8.748;2022-09-27T10:20:34;11.90;80.00
3075;DHT22;1548;51.716;8.748;2022-09-27T10:23:12;11.80;79.30
3075;DHT22;1548;51.716;8.748;2022-09-27T10:31:04;11.30;79.80
3075;DHT22;1548;51.716;8.748;2022-09-27T10:33:30;11.10;81.00
3075;DHT22;1548;51.716;8.748;2022-09-27T10:35:57;10.80;80.80
3075;DHT22;1548;51.716;8.748;2022-09-27T10:38:25;10.50;81.30
3075;DHT22;1548;51.716;8.748;2022-09-27T10:40:56;10.00;81.20
3075;DHT22;1548;51.716;8.748;2022-09-27T10:43:34;9.90;81.10
3075;DHT22;1548;51.716;8.748;2022-09-27T10:48:34;9.90;81.10
3075;DHT22;1548;51.716;8.748;2022-09-27T10:51:05;9.90;81.50
3075;DHT22;1548;51.716;8.748;2022-09-27T10:53:33;10.00;81.20
3075;DHT22;1548;51.716;8.748;2022-09-27T10:56:00;10.30;81.50
3075;DHT22;1548;51.716;8.748;2022-09-27T10:58:33;10.30;81.60
3075;DHT22;1548;51.716;8.748;2022-09-27T11:01:01;10.20;81.40
3075;DHT22;1548;51.716;8.748;2022-09-27T11:03:34;10.10;81.30
3075;DHT22;1548;51.716;8.748;2022-09-27T11:06:18;10.00;81.40
3075;DHT22;1548;51.716;8.748;2022-09-27T11:08:44;9.80;81.40
3075;DHT22;1548;51.716;8.748;2022-09-27T11:13:39;9.70;81.60
3075;DHT22;1548;51.716;8.748;2022-09-27T11:37:51;10.60;81.80
3075;DHT22;1548;51.716;8.748;2022-09-27T11:43:25;10.30;81.50
3075;DHT22;1548;51.716;8.748;2022-09-27T11:48:36;10.40;81.30
3075;DHT22;1548;51.716;8.748;2022-09-27T11:53:58;10.60;81.40
3075;DHT22;1548;51.716;8.748;2022-09-27T12:02:10;10.70;81.50
3075;DHT22;1548;51.716;8.748;2022-09-27T12:04:50;10.80;81.60
3075;DHT22;1548;51.716;8.748;2022-09-27T12:07:44;10.80;82.30
3075;DHT22;1548;51.716;8.748;2022-09-27T12:10:15;10.60;82.00
3075;DHT22;1548;51.716;8.748;2022-09-27T12:12:43;10.70;81.30
3075;DHT22;1548;51.716;8.748;2022-09-27T12:15:18;11.00;81.30
3075;DHT22;1548;51.716;8.748;2022-09-27T12:17:51;11.10;80.90
3075;DHT22;1548;51.716;8.748;2022-09-27T12:20:26;11.20;80.60
3075;DHT22;1548;51.716;8.748;2022-09-27T12:23:03;11.40;80.60
3075;DHT22;1548;51.716;8.748;2022-09-27T12:25:35;11.50;81.80
3075;DHT22;1548;51.716;8.748;2022-09-27T12:30:52;11.30;80.50
3075;DHT22;1548;51.716;8.748;2022-09-27T12:33:30;11.30;80.60
3075;DHT22;1548;51.716;8.748;2022-09-27T12:36:03;11.20;80.50
3075;DHT22;1548;51.716;8.748;2022-09-27T12:38:43;11.20;80.20
3075;DHT22;1548;51.716;8.748;2022-09-27T12:41:13;11.30;80.80
3075;DHT22;1548;51.716;8.748;2022-09-27T12:43:44;11.20;80.40
3075;DHT22;1548;51.716;8.748;2022-09-27T12:52:12;11.00;79.80
3075;DHT22;1548;51.716;8.748;2022-09-27T13:00:11;11.30;80.00
3075;DHT22;1548;51.716;8.748;2022-09-27T13:08:48;11.40;79.90
3075;DHT22;1548;51.716;8.748;2022-09-27T13:14:00;11.40;79.50
3075;DHT22;1548;51.716;8.748;2022-09-27T13:16:27;11.60;79.00
3075;DHT22;1548;51.716;8.748;2022-09-27T13:18:58;11.70;79.60
3075;DHT22;1548;51.716;8.748;2022-09-27T13:27:13;12.00;79.20
3075;DHT22;1548;51.716;8.748;2022-09-27T13:29:51;12.10;78.60
3075;DHT22;1548;51.716;8.748;2022-09-27T13:32:37;12.20;78.80
3075;DHT22;1548;51.716;8.748;2022-09-27T13:35:32;12.40;78.70
3075;DHT22;1548;51.716;8.748;2022-09-27T13:37:59;12.30;77.90
3075;DHT22;1548;51.716;8.748;2022-09-27T13:40:30;12.20;77.90
3075;DHT22;1548;51.716;8.748;2022-09-27T13:45:54;12.70;77.90
3075;DHT22;1548;51.716;8.748;2022-09-27T13:48:23;12.70;77.40
3075;DHT22;1548;51.716;8.748;2022-09-27T13:53:58;12.10;77.00
3075;DHT22;1548;51.716;8.748;2022-09-27T13:59:07;11.80;78.00
3075;DHT22;1548;51.716;8.748;2022-09-27T14:01:50;11.60;78.10
3075;DHT22;1548;51.716;8.748;2022-09-27T14:04:20;11.50;78.50
3075;DHT22;1548;51.716;8.748;2022-09-27T14:06:53;11.30;79.10
3075;DHT22;1548;51.716;8.748;2022-09-27T14:09:37;11.20;79.50
3075;DHT22;1548;51.716;8.748;2022-09-27T14:12:10;11.10;80.10
3075;DHT22;1548;51.716;8.748;2022-09-27T14:14:38;10.80;79.80
3075;DHT22;1548;51.716;8.748;2022-09-27T14:17:07;10.90;80.20
3075;DHT22;1548;51.716;8.748;2022-09-27T14:19:38;11.10;80.30
3075;DHT22;1548;51.716;8.748;2022-09-27T14:22:11;11.20;80.30
3075;DHT22;1548;51.716;8.748;2022-09-27T14:29:40;10.90;80.70
3075;DHT22;1548;51.716;8.748;2022-09-27T14:32:09;11.00;81.10
3075;DHT22;1548;51.716;8.748;2022-09-27T14:34:36;10.90;81.10
3075;DHT22;1548;51.716;8.748;2022-09-27T14:37:03;11.00;80.70
3075;DHT22;1548;51.716;8.748;2022-09-27T14:40:00;11.10;80.90
3075;DHT22;1548;51.716;8.748;2022-09-27T14:42:33;10.90;80.70
3075;DHT22;1548;51.716;8.748;2022-09-27T14:45:06;11.00;80.80
3075;DHT22;1548;51.716;8.748;2022-09-27T14:47:44;11.10;80.90
3075;DHT22;1548;51.716;8.748;2022-09-27T14:50:18;11.10;80.90
3075;DHT22;1548;51.716;8.748;2022-09-27T14:52:44;10.90;80.90
3075;DHT22;1548;51.716;8.748;2022-09-27T14:55:16;10.90;80.90
3075;DHT22;1548;51.716;8.748;2022-09-27T14:58:01;10.90;80.90
3075;DHT22;1548;51.716;8.748;2022-09-27T15:00:30;10.80;80.90
3075;DHT22;1548;51.716;8.748;2022-09-27T15:02:58;10.80;81.30
3075;DHT22;1548;51.716;8.748;2022-09-27T15:05:30;10.80;81.00
3075;DHT22;1548;51.716;8.748;2022-09-27T15:07:58;10.90;81.00
3075;DHT22;1548;51.716;8.748;2022-09-27T15:10:28;10.90;81.60
3075;DHT22;1548;51.716;8.748;2022-09-27T15:12:58;10.90;81.10
3075;DHT22;1548;51.716;8.748;2022-09-27T15:15:36;10.90;81.20
3075;DHT22;1548;51.716;8.748;2022-09-27T15:18:40;10.80;80.90
3075;DHT22;1548;51.716;8.748;2022-09-27T15:21:10;10.90;81.00
3075;DHT22;1548;51.716;8.748;2022-09-27T15:23:42;11.00;81.00
3075;DHT22;1548;51.716;8.748;2022-09-27T15:26:13;11.20;81.40
3075;DHT22;1548;51.716;8.748;2022-09-27T15:28:44;10.90;80.70
3075;DHT22;1548;51.716;8.748;2022-09-27T15:31:11;11.10;80.90
3075;DHT22;1548;51.716;8.748;2022-09-27T15:33:38;11.00;80.80
3075;DHT22;1548;51.716;8.748;2022-09-27T15:36:09;11.20;80.90
3075;DHT22;1548;51.716;8.748;2022-09-27T15:38:39;11.30;80.80
3075;DHT22;1548;51.716;8.748;2022-09-27T15:41:16;11.30;81.10
3075;DHT22;1548;51.716;8.748;2022-09-27T15:43:43;11.40;80.90
3075;DHT22;1548;51.716;8.748;2022-09-27T15:46:34;11.20;80.60
3075;DHT22;1548;51.716;8.748;2022-09-27T15:52:07;11.20;80.80
3075;DHT22;1548;51.716;8.748;2022-09-27T15:54:53;11.10;80.80
3075;DHT22;1548;51.716;8.748;2022-09-27T15:57:18;11.20;80.90
3075;DHT22;1548;51.716;8.748;2022-09-27T15:59:44;11.20;80.90
3075;DHT22;1548;51.716;8.748;2022-09-27T16:02:14;11.20;80.80
3075;DHT22;1548;51.716;8.748;2022-09-27T16:04:40;11.10;80.60
3075;DHT22;1548;51.716;8.748;2022-09-27T16:07:06;11.10;80.70
3075;DHT22;1548;51.716;8.748;2022-09-27T16:09:34;11.10;80.80
3075;DHT22;1548;51.716;8.748;2022-09-27T16:12:00;10.90;80.70
3075;DHT22;1548;51.716;8.748;2022-09-27T16:14:25;10.90;80.90
3075;DHT22;1548;51.716;8.748;2022-09-27T16:16:53;10.80;80.90
3075;DHT22;1548;51.716;8.748;2022-09-27T16:19:20;10.80;81.00
3075;DHT22;1548;51.716;8.748;2022-09-27T16:21:49;10.60;80.90
3075;DHT22;1548;51.716;8.748;2022-09-27T16:24:15;10.60;81.00
3075;DHT22;1548;51.716;8.748;2022-09-27T16:26:44;10.60;81.00
3075;DHT22;1548;51.716;8.748;2022-09-27T16:29:13;10.60;81.00
3075;DHT22;1548;51.716;8.748;2022-09-27T16:31:40;10.70;81.10
3075;DHT22;1548;51.716;8.748;2022-09-27T16:34:10;10.70;81.10
3075;DHT22;1548;51.716;8.748;2022-09-27T16:36:36;10.70;81.10
3075;DHT22;1548;51.716;8.748;2022-09-27T16:39:02;10.80;81.10
3075;DHT22;1548;51.716;8.748;2022-09-27T16:41:30;10.80;81.20
3075;DHT22;1548;51.716;8.748;2022-09-27T16:43:58;10.70;81.00
3075;DHT22;1548;51.716;8.748;2022-09-27T16:46:23;10.70;81.50
3075;DHT22;1548;51.716;8.748;2022-09-27T16:48:49;10.60;81.00
3075;DHT22;1548;51.716;8.748;2022-09-27T16:51:19;10.60;81.10
3075;DHT22;1548;51.716;8.748;2022-09-27T16:54:05;10.60;81.20
3075;DHT22;1548;51.716;8.748;2022-09-27T16:56:33;10.60;81.10
3075;DHT22;1548;51.716;8.748;2022-09-27T16:58:59;10.60;81.10
3075;DHT22;1548;51.716;8.748;2022-09-27T17:01:31;10.60;81.10
3075;DHT22;1548;51.716;8.748;2022-09-27T17:03:56;10.60;81.20
3075;DHT22;1548;51.716;8.748;2022-09-27T17:06:24;10.50;81.00
3075;DHT22;1548;51.716;8.748;2022-09-27T17:08:50;10.60;81.10
3075;DHT22;1548;51.716;8.748;2022-09-27T17:11:17;10.60;81.10
3075;DHT22;1548;51.716;8.748;2022-09-27T17:13:44;10.60;81.10
3075;DHT22;1548;51.716;8.748;2022-09-27T17:16:12;10.50;81.00
3075;DHT22;1548;51.716;8.748;2022-09-27T17:18:38;10.50;81.10
3075;DHT22;1548;51.716;8.748;2022-09-27T17:21:05;10.50;81.20
3075;DHT22;1548;51.716;8.748;2022-09-27T17:23:32;10.50;81.10
3075;DHT22;1548;51.716;8.748;2022-09-27T17:26:07;10.50;81.20
3075;DHT22;1548;51.716;8.748;2022-09-27T17:28:34;10.40;81.20
3075;DHT22;1548;51.716;8.748;2022-09-27T17:31:08;10.30;81.10
3075;DHT22;1548;51.716;8.748;2022-09-27T17:33:43;10.20;81.10
3075;DHT22;1548;51.716;8.748;2022-09-27T17:36:18;10.20;81.20
3075;DHT22;1548;51.716;8.748;2022-09-27T17:38:45;10.20;81.20
3075;DHT22;1548;51.716;8.748;2022-09-27T17:41:12;10.10;81.20
3075;DHT22;1548;51.716;8.748;2022-09-27T17:43:39;10.10;81.30
3075;DHT22;1548;51.716;8.748;2022-09-27T17:46:12;10.00;81.20
3075;DHT22;1548;51.716;8.748;2022-09-27T17:48:37;10.00;81.20
3075;DHT22;1548;51.716;8.748;2022-09-27T17:51:22;10.00;81.30
3075;DHT22;1548;51.716;8.748;2022-09-27T17:53:48;10.00;81.30
3075;DHT22;1548;51.716;8.748;2022-09-27T17:56:15;10.00;81.30
3075;DHT22;1548;51.716;8.748;2022-09-27T17:58:54;10.00;81.40
3075;DHT22;1548;51.716;8.748;2022-09-27T18:01:22;9.90;81.30
3075;DHT22;1548;51.716;8.748;2022-09-27T18:03:52;9.90;81.30
3075;DHT22;1548;51.716;8.748;2022-09-27T18:06:18;9.90;81.40
3075;DHT22;1548;51.716;8.748;2022-09-27T18:08:44;9.90;81.30
3075;DHT22;1548;51.716;8.748;2022-09-27T18:11:12;9.80;81.50
3075;DHT22;1548;51.716;8.748;2022-09-27T18:13:39;9.80;81.40
3075;DHT22;1548;51.716;8.748;2022-09-27T18:16:10;9.80;81.40
3075;DHT22;1548;51.716;8.748;2022-09-27T18:18:37;9.80;81.50
3075;DHT22;1548;51.716;8.748;2022-09-27T18:21:09;9.80;81.40
3075;DHT22;1548;51.716;8.748;2022-09-27T18:23:37;9.80;81.30
3075;DHT22;1548;51.716;8.748;2022-09-27T18:26:03;9.80;81.40
3075;DHT22;1548;51.716;8.748;2022-09-27T18:28:37;9.80;81.40
3075;DHT22;1548;51.716;8.748;2022-09-27T18:31:08;9.80;81.40
3075;DHT22;1548;51.716;8.748;2022-09-27T18:33:34;9.80;81.40
3075;DHT22;1548;51.716;8.748;2022-09-27T18:36:05;9.80;81.40
3075;DHT22;1548;51.716;8.748;2022-09-27T18:38:31;9.70;81.50
3075;DHT22;1548;51.716;8.748;2022-09-27T18:41:07;9.70;81.50
3075;DHT22;1548;51.716;8.748;2022-09-27T18:43:33;9.60;81.30
3075;DHT22;1548;51.716;8.748;2022-09-27T18:46:00;9.60;81.60
3075;DHT22;1548;51.716;8.748;2022-09-27T18:48:26;9.60;81.50
3075;DHT22;1548;51.716;8.748;2022-09-27T18:50:52;9.60;81.50
3075;DHT22;1548;51.716;8.748;2022-09-27T18:53:17;9.60;81.50
3075;DHT22;1548;51.716;8.748;2022-09-27T18:55:43;9.60;81.50
3075;DHT22;1548;51.716;8.748;2022-09-27T18:58:08;9.50;81.60
3075;DHT22;1548;51.716;8.748;2022-09-27T19:00:38;9.50;81.50
3075;DHT22;1548;51.716;8.748;2022-09-27T19:03:04;9.50;81.60